createdAt,value
2023-01-11T00:02:24.294Z,100750.27
2023-01-11T00:05:18.970Z,100750.02
2023-01-11T00:07:55.866Z,100749.10
2023-01-11T00:10:30.882Z,100747.60
2023-01-11T00:13:12.570Z,100748.89
2023-01-11T00:15:46.844Z,100748.02
2023-01-11T00:18:20.356Z,100748.58
2023-01-11T00:20:54.000Z,100746.59
2023-01-11T00:23:42.545Z,100745.77
2023-01-11T00:26:36.599Z,100748.52
2023-01-11T00:29:10.809Z,100752.66
2023-01-11T00:32:30.211Z,100757.27
2023-01-11T00:35:03.694Z,100759.50
2023-01-11T00:37:37.236Z,100758.50
2023-01-11T00:40:12.498Z,100753.19
2023-01-11T00:43:03.016Z,100747.13
2023-01-11T00:45:53.653Z,100747.26
2023-01-11T00:48:27.152Z,100753.39
2023-01-11T00:51:01.012Z,100757.51
2023-01-11T00:53:34.342Z,100768.02
2023-01-11T00:56:08.506Z,100772.67
2023-01-11T00:58:41.827Z,100773.61
2023-01-11T01:01:15.102Z,100773.49
2023-01-11T01:03:48.640Z,100775.20
2023-01-11T01:06:21.948Z,100775.59
2023-01-11T01:08:55.375Z,100774.81
2023-01-11T01:11:28.760Z,100777.14
2023-01-11T01:14:19.328Z,100779.31
2023-01-11T01:16:52.750Z,100781.73
2023-01-11T01:19:28.042Z,100779.45
2023-01-11T01:22:02.186Z,100778.59
2023-01-11T01:24:35.840Z,100779.58
2023-01-11T01:27:09.068Z,100780.21
2023-01-11T01:29:42.360Z,100778.73
2023-01-11T01:32:15.858Z,100778.27
2023-01-11T01:34:49.235Z,100782.92
2023-01-11T01:37:22.543Z,100789.53
2023-01-11T01:39:55.845Z,100791.73
2023-01-11T01:42:29.174Z,100785.33
2023-01-11T01:45:07.034Z,100779.69
2023-01-11T01:47:49.168Z,100783.55
2023-01-11T01:50:25.861Z,100782.06
2023-01-11T01:53:05.098Z,100776.16
2023-01-11T01:55:40.949Z,100778.73
2023-01-11T01:58:18.225Z,100776.86
2023-01-11T02:00:52.257Z,100776.04
2023-01-11T02:03:28.710Z,100782.40
2023-01-11T02:06:01.977Z,100782.62
2023-01-11T02:08:40.794Z,100780.41
2023-01-11T02:14:22.471Z,100775.95
2023-01-11T02:16:54.472Z,100772.80
2023-01-11T02:19:53.027Z,100769.84
2023-01-11T02:23:01.686Z,100767.77
2023-01-11T02:26:02.919Z,100764.98
2023-01-11T02:28:42.067Z,100768.72
2023-01-11T02:31:27.470Z,100769.09
2023-01-11T02:34:16.449Z,100767.06
2023-01-11T02:37:04.635Z,100765.98
2023-01-11T02:39:51.423Z,100765.44
2023-01-11T02:42:51.358Z,100764.94
2023-01-11T02:45:38.117Z,100764.52
2023-01-11T02:48:21.309Z,100759.44
2023-01-11T02:51:04.529Z,100754.65
2023-01-11T02:53:43.237Z,100754.00
2023-01-11T02:56:21.882Z,100752.16
2023-01-11T02:58:58.226Z,100755.48
2023-01-11T03:01:31.912Z,100761.44
2023-01-11T03:04:05.896Z,100763.42
2023-01-11T03:06:40.101Z,100769.25
2023-01-11T03:09:21.038Z,100770.49
2023-01-11T03:12:32.597Z,100764.71
2023-01-11T03:15:19.194Z,100759.89
2023-01-11T03:18:04.041Z,100758.98
2023-01-11T03:20:43.419Z,100763.91
2023-01-11T03:23:24.004Z,100763.30
2023-01-11T03:26:07.739Z,100763.77
2023-01-11T03:28:50.624Z,100766.33
2023-01-11T03:31:32.643Z,100766.65
2023-01-11T03:34:17.096Z,100762.83
2023-01-11T03:36:56.945Z,100762.38
2023-01-11T03:39:35.077Z,100756.98
2023-01-11T03:42:12.589Z,100752.16
2023-01-11T03:44:48.680Z,100748.36
2023-01-11T03:47:25.883Z,100747.17
2023-01-11T03:50:05.262Z,100744.61
2023-01-11T03:52:43.439Z,100744.63
2023-01-11T03:55:19.153Z,100743.96
2023-01-11T03:57:53.146Z,100741.46
2023-01-11T04:00:29.242Z,100742.88
2023-01-11T04:03:03.802Z,100746.11
2023-01-11T04:05:40.178Z,100747.52
2023-01-11T04:08:13.802Z,100750.69
2023-01-11T04:10:47.652Z,100754.17
2023-01-11T04:13:21.259Z,100750.71
2023-01-11T04:15:56.085Z,100751.41
2023-01-11T04:18:30.037Z,100752.39
2023-01-11T04:21:03.354Z,100755.23
2023-01-11T04:23:37.315Z,100754.92
2023-01-11T04:26:11.409Z,100752.84
2023-01-11T04:28:45.203Z,100750.95
2023-01-11T04:31:18.557Z,100752.35
2023-01-11T04:33:52.358Z,100750.19
2023-01-11T04:36:26.770Z,100748.74
2023-01-11T04:39:00.301Z,100744.95
2023-01-11T04:41:51.470Z,100740.04
2023-01-11T04:44:25.679Z,100740.81
2023-01-11T04:46:59.443Z,100736.92
2023-01-11T04:49:33.478Z,100739.79
2023-01-11T04:52:07.738Z,100743.11
2023-01-11T04:54:41.727Z,100741.70
2023-01-11T04:57:17.172Z,100743.47
2023-01-11T04:59:50.998Z,100743.48
2023-01-11T05:02:24.609Z,100745.94
2023-01-11T05:04:58.223Z,100748.15
2023-01-11T05:07:32.377Z,100752.23
2023-01-11T05:10:06.305Z,100755.52
2023-01-11T05:12:40.043Z,100753.48
2023-01-11T05:15:14.796Z,100754.84
2023-01-11T05:17:48.034Z,100754.18
2023-01-11T05:20:21.987Z,100760.52
2023-01-11T05:22:55.668Z,100764.20
2023-01-11T05:25:29.113Z,100758.25
2023-01-11T05:28:02.649Z,100760.23
2023-01-11T05:30:36.253Z,100759.61
2023-01-11T05:33:09.933Z,100759.26
2023-01-11T05:35:43.817Z,100755.02
2023-01-11T05:38:17.574Z,100758.16
2023-01-11T05:40:58.268Z,100758.69
2023-01-11T05:43:33.449Z,100753.20
2023-01-11T05:46:08.256Z,100747.80
2023-01-11T05:48:41.577Z,100741.55
2023-01-11T05:51:15.179Z,100736.41
2023-01-11T05:53:48.956Z,100733.96
2023-01-11T05:56:22.786Z,100732.36
2023-01-11T05:58:57.064Z,100730.80
2023-01-11T06:01:30.859Z,100729.63
2023-01-11T06:04:04.792Z,100724.05
2023-01-11T06:06:39.075Z,100725.27
2023-01-11T06:09:13.260Z,100725.67
2023-01-11T06:11:46.905Z,100723.22
2023-01-11T06:14:20.921Z,100722.33
2023-01-11T06:16:55.108Z,100718.90
2023-01-11T06:19:28.701Z,100722.41
2023-01-11T06:22:02.621Z,100728.23
2023-01-11T06:24:36.124Z,100726.43
2023-01-11T06:27:10.030Z,100727.15
2023-01-11T06:29:43.585Z,100723.80
2023-01-11T06:32:17.493Z,100721.97
2023-01-11T06:34:51.156Z,100722.64
2023-01-11T06:37:25.196Z,100724.89
2023-01-11T06:39:59.054Z,100719.08
2023-01-11T06:42:33.098Z,100719.32
2023-01-11T06:45:08.278Z,100716.73
2023-01-11T06:47:42.131Z,100718.98
2023-01-11T06:50:16.053Z,100721.21
2023-01-11T06:52:56.700Z,100720.83
2023-01-11T06:55:32.217Z,100722.26
2023-01-11T06:58:05.983Z,100725.75
2023-01-11T07:00:39.908Z,100724.27
2023-01-11T07:03:14.610Z,100724.20
2023-01-11T07:05:48.558Z,100723.61
2023-01-11T07:08:22.822Z,100727.89
2023-01-11T07:10:57.270Z,100728.63
2023-01-11T07:13:31.004Z,100725.02
2023-01-11T07:16:05.003Z,100727.98
2023-01-11T07:18:39.043Z,100732.87
2023-01-11T07:21:12.698Z,100734.17
2023-01-11T07:23:49.127Z,100730.20
2023-01-11T07:26:22.924Z,100725.23
2023-01-11T07:28:56.500Z,100725.89
2023-01-11T07:31:30.754Z,100725.80
2023-01-11T07:34:04.350Z,100730.30
2023-01-11T07:36:39.947Z,100727.95
2023-01-11T07:39:14.017Z,100726.57
2023-01-11T07:42:05.514Z,100724.20
2023-01-11T07:44:39.817Z,100717.02
2023-01-11T07:47:13.811Z,100716.98
2023-01-11T07:49:47.649Z,100716.55
2023-01-11T07:52:21.874Z,100717.98
2023-01-11T07:54:55.621Z,100719.05
2023-01-11T07:57:29.661Z,100716.73
2023-01-11T08:00:03.536Z,100717.73
2023-01-11T08:02:45.624Z,100719.95
2023-01-11T08:05:19.811Z,100717.15
2023-01-11T08:07:53.470Z,100711.29
2023-01-11T08:10:27.458Z,100709.20
2023-01-11T08:13:19.999Z,100711.15
2023-01-11T08:15:54.102Z,100715.75
2023-01-11T08:18:27.567Z,100715.86
2023-01-11T08:21:01.270Z,100709.77
2023-01-11T08:23:36.049Z,100709.70
2023-01-11T08:26:09.952Z,100706.45
2023-01-11T08:28:43.875Z,100711.63
2023-01-11T08:31:17.498Z,100712.30
2023-01-11T08:33:52.038Z,100707.48
2023-01-11T08:36:28.147Z,100702.66
2023-01-11T08:39:02.188Z,100709.30
2023-01-11T08:41:36.279Z,100711.07
2023-01-11T08:44:11.828Z,100705.86
2023-01-11T08:46:46.151Z,100706.52
2023-01-11T08:49:19.864Z,100706.70
2023-01-11T08:51:55.656Z,100703.92
2023-01-11T08:54:29.642Z,100703.64
2023-01-11T08:57:03.636Z,100700.71
2023-01-11T08:59:37.553Z,100704.06
2023-01-11T09:02:11.797Z,100708.75
2023-01-11T09:04:45.960Z,100704.27
2023-01-11T09:07:19.952Z,100703.64
2023-01-11T09:09:53.652Z,100707.29
2023-01-11T09:12:28.026Z,100709.95
2023-01-11T09:15:01.891Z,100706.58
2023-01-11T09:17:35.951Z,100705.27
2023-01-11T09:20:12.301Z,100703.27
2023-01-11T09:22:51.956Z,100699.02
2023-01-11T09:25:27.144Z,100694.30
2023-01-11T09:28:01.229Z,100687.52
2023-01-11T09:30:35.095Z,100677.97
2023-01-11T09:33:08.999Z,100669.64
2023-01-11T09:35:43.253Z,100668.84
2023-01-11T09:38:17.318Z,100670.04
2023-01-11T09:41:00.876Z,100664.37
2023-01-11T09:43:39.053Z,100663.75
2023-01-11T09:46:15.576Z,100664.83
2023-01-11T09:48:54.423Z,100668.54
2023-01-11T09:51:33.724Z,100664.69
2023-01-11T09:54:11.431Z,100667.89
2023-01-11T09:56:54.233Z,100664.03
2023-01-11T09:59:35.320Z,100661.77
2023-01-11T10:02:19.946Z,100660.77
2023-01-11T10:05:24.037Z,100661.16
2023-01-11T10:18:25.680Z,100657.19
2023-01-11T10:18:31.136Z,100658.75
2023-01-11T10:20:28.474Z,100651.05
2023-01-11T10:23:07.125Z,100646.73
2023-01-11T10:25:52.253Z,100649.55
2023-01-11T10:28:33.750Z,100647.05
2023-01-11T10:31:30.572Z,100646.73
2023-01-11T10:34:25.261Z,100650.10
2023-01-11T10:37:19.429Z,100653.65
2023-01-11T10:40:20.389Z,100648.93
2023-01-11T10:43:04.062Z,100640.43
2023-01-11T10:45:46.721Z,100638.05
2023-01-11T10:48:28.343Z,100637.39
2023-01-11T10:51:09.945Z,100639.09
2023-01-11T10:53:56.609Z,100631.50
2023-01-11T10:56:42.954Z,100625.94
2023-01-11T11:00:07.485Z,100627.07
2023-01-11T11:03:17.241Z,100623.98
2023-01-11T11:06:03.028Z,100617.98
2023-01-11T11:08:47.100Z,100614.70
2023-01-11T11:11:28.904Z,100611.04
2023-01-11T11:14:11.108Z,100601.75
2023-01-11T11:16:57.860Z,100594.80
2023-01-11T11:19:33.796Z,100589.95
2023-01-11T11:22:08.635Z,100580.52
2023-01-11T11:24:45.990Z,100575.86
2023-01-11T11:27:26.824Z,100572.41
2023-01-11T11:30:00.566Z,100570.20
2023-01-11T11:32:37.491Z,100571.95
2023-01-11T11:35:39.826Z,100568.43
2023-01-11T11:38:31.580Z,100561.21
2023-01-11T11:41:11.400Z,100559.97
2023-01-11T11:43:46.212Z,100553.89
2023-01-11T11:46:29.955Z,100550.86
2023-01-11T11:49:17.985Z,100549.00
2023-01-11T11:51:52.508Z,100544.20
2023-01-11T11:54:29.944Z,100541.59
2023-01-11T11:57:17.176Z,100542.55
2023-01-11T11:59:57.598Z,100542.30
2023-01-11T12:02:34.000Z,100540.39
2023-01-11T12:05:12.677Z,100533.68
2023-01-11T12:07:55.090Z,100531.55
2023-01-11T12:10:31.744Z,100530.30
2023-01-11T12:13:26.393Z,100529.89
2023-01-11T12:16:05.276Z,100523.62
2023-01-11T12:18:44.180Z,100518.75
2023-01-11T12:21:24.385Z,100516.59
2023-01-11T12:24:18.679Z,100511.27
2023-01-11T12:27:04.936Z,100507.22
2023-01-11T12:29:54.910Z,100502.52
2023-01-11T12:32:50.771Z,100499.38
2023-01-11T12:35:41.467Z,100497.79
2023-01-11T12:38:40.692Z,100491.44
2023-01-11T12:41:50.452Z,100492.94
2023-01-11T12:44:33.841Z,100489.83
2023-01-11T12:47:41.604Z,100494.20
2023-01-11T12:50:21.173Z,100491.95
2023-01-11T12:53:15.456Z,100493.03
2023-01-11T12:55:58.953Z,100491.16
2023-01-11T12:58:37.710Z,100489.98
2023-01-11T13:01:21.524Z,100481.88
2023-01-11T13:04:27.749Z,100471.91
2023-01-11T13:07:10.492Z,100463.10
2023-01-11T13:09:56.408Z,100457.88
2023-01-11T13:12:38.316Z,100455.30
2023-01-11T13:15:27.222Z,100446.69
2023-01-11T13:18:06.993Z,100451.89
2023-01-11T13:21:00.457Z,100452.90
2023-01-11T13:23:44.044Z,100447.98
2023-01-11T13:26:23.629Z,100444.72
2023-01-11T13:29:03.139Z,100448.87
2023-01-11T13:31:37.878Z,100445.88
2023-01-11T13:34:20.972Z,100444.89
2023-01-11T13:36:59.562Z,100439.86
2023-01-11T13:39:41.940Z,100438.30
2023-01-11T13:42:22.062Z,100438.27
2023-01-11T13:45:00.125Z,100434.61
2023-01-11T13:47:41.125Z,100436.14
2023-01-11T13:50:22.863Z,100438.18
2023-01-11T13:53:10.294Z,100434.42
2023-01-11T13:55:54.807Z,100436.11
2023-01-11T13:58:32.570Z,100430.38
2023-01-11T14:01:12.077Z,100432.53
2023-01-11T14:03:51.566Z,100428.14
2023-01-11T14:06:42.589Z,100431.04
2023-01-11T14:09:32.177Z,100425.73
2023-01-11T14:12:16.244Z,100421.27
2023-01-11T14:15:09.629Z,100419.54
2023-01-11T14:18:12.459Z,100423.84
2023-01-11T14:20:54.155Z,100425.34
2023-01-11T14:23:37.976Z,100428.56
2023-01-11T14:26:44.947Z,100418.73
2023-01-11T14:29:48.473Z,100413.17
2023-01-11T14:32:46.463Z,100410.52
2023-01-11T14:35:56.508Z,100406.16
2023-01-11T14:38:52.925Z,100407.50
2023-01-11T14:41:56.563Z,100410.92
2023-01-11T14:45:13.652Z,100406.08
2023-01-11T14:48:16.144Z,100407.41
2023-01-11T14:51:07.283Z,100411.38
2023-01-11T14:53:45.144Z,100410.91
2023-01-11T14:56:52.917Z,100405.41
2023-01-11T14:59:34.752Z,100398.52
2023-01-11T15:02:30.355Z,100393.78
2023-01-11T15:05:36.065Z,100395.11
2023-01-11T15:08:25.420Z,100394.61
2023-01-11T15:11:05.791Z,100393.26
2023-01-11T15:13:46.679Z,100384.84
2023-01-11T15:16:42.290Z,100380.93
2023-01-11T15:19:28.443Z,100377.23
2023-01-11T15:22:04.702Z,100376.36
2023-01-11T15:24:42.584Z,100368.70
2023-01-11T15:27:29.438Z,100369.54
2023-01-11T15:30:03.501Z,100365.98
2023-01-11T15:32:38.082Z,100366.84
2023-01-11T15:35:36.143Z,100368.75
2023-01-11T15:38:16.869Z,100363.15
2023-01-11T15:40:52.789Z,100359.71
2023-01-11T15:43:53.822Z,100356.64
2023-01-11T15:46:57.289Z,100349.43
2023-01-11T15:49:59.445Z,100343.59
2023-01-11T15:53:03.197Z,100340.32
2023-01-11T15:56:07.106Z,100341.69
2023-01-11T15:59:07.248Z,100343.96
2023-01-11T16:01:55.494Z,100339.90
2023-01-11T16:04:33.907Z,100340.45
2023-01-11T16:07:17.653Z,100343.55
2023-01-11T16:10:20.924Z,100342.48
2023-01-11T16:13:06.189Z,100339.41
2023-01-11T16:15:56.747Z,100335.72
2023-01-11T16:18:36.962Z,100337.50
2023-01-11T16:21:18.578Z,100340.41
2023-01-11T16:23:52.974Z,100341.40
2023-01-11T16:26:27.264Z,100346.34
2023-01-11T16:29:10.395Z,100347.50
2023-01-11T16:31:58.856Z,100350.59
2023-01-11T16:34:31.397Z,100353.55
2023-01-11T16:37:20.548Z,100349.18
2023-01-11T16:39:59.434Z,100350.39
2023-01-11T16:42:41.561Z,100350.85
2023-01-11T16:45:21.140Z,100347.41
2023-01-11T16:48:09.113Z,100350.02
2023-01-11T16:50:45.630Z,100353.17
2023-01-11T16:53:19.571Z,100351.77
2023-01-11T16:55:59.937Z,100351.15
2023-01-11T16:58:35.631Z,100349.07
2023-01-11T17:01:12.101Z,100350.81
2023-01-11T17:03:52.997Z,100350.82
2023-01-11T17:06:27.786Z,100346.84
2023-01-11T17:09:10.955Z,100342.70
2023-01-11T17:11:50.486Z,100341.45
2023-01-11T17:15:03.136Z,100335.20
2023-01-11T17:17:40.326Z,100332.91
2023-01-11T17:20:22.592Z,100329.05
2023-01-11T17:22:57.579Z,100335.77
2023-01-11T17:25:44.366Z,100339.95
2023-01-11T17:28:22.044Z,100338.80
2023-01-11T17:30:56.732Z,100337.52
2023-01-11T17:33:34.941Z,100331.70
2023-01-11T17:36:10.736Z,100327.27
2023-01-11T17:38:45.495Z,100320.92
2023-01-11T17:41:33.553Z,100313.55
2023-01-11T17:44:30.617Z,100307.65
2023-01-11T17:47:07.020Z,100307.15
2023-01-11T17:49:41.291Z,100312.13
2023-01-11T17:52:23.643Z,100311.27
2023-01-11T17:55:17.050Z,100311.05
2023-01-11T17:58:12.926Z,100312.38
2023-01-11T18:00:49.123Z,100310.51
2023-01-11T18:03:22.987Z,100309.47
2023-01-11T18:05:57.203Z,100310.55
2023-01-11T18:08:31.150Z,100310.05
2023-01-11T18:11:05.302Z,100315.06
2023-01-11T18:13:39.009Z,100307.41
2023-01-11T18:16:19.941Z,100304.46
2023-01-11T18:18:55.625Z,100303.88
2023-01-11T18:21:55.336Z,100304.13
2023-01-11T18:24:45.537Z,100300.92
2023-01-11T18:27:36.138Z,100297.88
2023-01-11T18:30:33.540Z,100299.52
2023-01-11T18:33:16.647Z,100291.11
2023-01-11T18:35:52.801Z,100288.78
2023-01-11T18:38:31.885Z,100288.54
2023-01-11T18:41:23.576Z,100277.14
2023-01-11T18:43:59.077Z,100274.95
2023-01-11T18:46:33.796Z,100265.25
2023-01-11T18:49:08.333Z,100263.34
2023-01-11T18:51:45.460Z,100262.72
2023-01-11T18:54:20.437Z,100264.05
2023-01-11T18:56:54.518Z,100269.23
2023-01-11T18:59:28.105Z,100272.05
2023-01-11T19:02:16.605Z,100276.79
2023-01-11T19:04:54.840Z,100273.10
2023-01-11T19:07:30.493Z,100271.98
2023-01-11T19:10:04.819Z,100273.55
2023-01-11T19:12:43.783Z,100264.02
2023-01-11T19:15:19.916Z,100264.14
2023-01-11T19:17:55.439Z,100260.29
2023-01-11T19:23:07.028Z,100250.54
2023-01-11T19:25:42.259Z,100252.61
2023-01-11T19:28:17.033Z,100256.38
2023-01-11T19:30:52.045Z,100252.16
2023-01-11T19:33:26.046Z,100253.27
2023-01-11T19:36:01.957Z,100249.30
2023-01-11T19:38:39.185Z,100246.02
2023-01-11T19:41:16.055Z,100243.44
2023-01-11T19:43:51.413Z,100243.20
2023-01-11T19:46:31.896Z,100236.36
2023-01-11T19:49:08.552Z,100234.33
2023-01-11T19:51:43.120Z,100235.00
2023-01-11T19:54:21.454Z,100237.24
2023-01-11T19:56:56.736Z,100241.92
2023-01-11T19:59:31.473Z,100243.25
2023-01-11T20:02:05.648Z,100244.16
2023-01-11T20:04:40.942Z,100238.31
2023-01-11T20:07:16.792Z,100234.50
2023-01-11T20:09:51.853Z,100230.11
2023-01-11T20:12:27.231Z,100229.98
2023-01-11T20:15:04.230Z,100228.88
2023-01-11T20:17:39.993Z,100224.66
2023-01-11T20:20:15.438Z,100220.30
2023-01-11T20:22:49.582Z,100220.47
2023-01-11T20:25:28.086Z,100222.29
2023-01-11T20:28:02.742Z,100220.48
2023-01-11T20:30:41.069Z,100217.48
2023-01-11T20:33:15.986Z,100216.54
2023-01-11T20:35:51.389Z,100213.59
2023-01-11T20:38:28.724Z,100211.80
2023-01-11T20:41:08.567Z,100208.36
2023-01-11T20:43:44.065Z,100204.63
2023-01-11T20:46:19.398Z,100198.91
2023-01-11T20:48:54.784Z,100196.20
2023-01-11T20:51:28.940Z,100199.90
2023-01-11T20:54:04.266Z,100199.02
2023-01-11T20:56:38.994Z,100196.36
2023-01-11T20:59:14.178Z,100190.02
2023-01-11T21:01:48.511Z,100189.77
2023-01-11T21:04:22.650Z,100188.18
2023-01-11T21:06:56.509Z,100189.20
2023-01-11T21:09:30.507Z,100191.34
2023-01-11T21:12:04.585Z,100193.49
2023-01-11T21:14:38.593Z,100187.48
2023-01-11T21:17:13.223Z,100190.96
2023-01-11T21:19:47.103Z,100191.61
2023-01-11T21:22:21.108Z,100190.98
2023-01-11T21:24:55.688Z,100192.48
2023-01-11T21:27:30.520Z,100185.08
2023-01-11T21:30:04.458Z,100186.23
2023-01-11T21:32:38.085Z,100189.45
2023-01-11T21:35:13.105Z,100186.17
2023-01-11T21:37:46.911Z,100180.59
2023-01-11T21:40:21.255Z,100175.63
2023-01-11T21:42:55.090Z,100174.91
2023-01-11T21:45:29.482Z,100178.02
2023-01-11T21:48:03.303Z,100171.98
2023-01-11T21:50:37.313Z,100174.09
2023-01-11T21:53:10.999Z,100173.94
2023-01-11T21:55:45.269Z,100175.17
2023-01-11T21:58:19.569Z,100172.05
2023-01-11T22:00:53.450Z,100169.71
2023-01-11T22:03:30.003Z,100172.32
2023-01-11T22:06:06.845Z,100175.58
2023-01-11T22:08:41.893Z,100179.07
2023-01-11T22:11:17.786Z,100178.33
2023-01-11T22:13:51.620Z,100178.31
2023-01-11T22:16:26.103Z,100174.42
2023-01-11T22:19:00.545Z,100170.82
2023-01-11T22:21:34.343Z,100167.79
2023-01-11T22:24:11.266Z,100168.41
2023-01-11T22:26:44.926Z,100170.21
2023-01-11T22:29:20.248Z,100169.24
2023-01-11T22:31:57.169Z,100166.71
2023-01-11T22:34:31.224Z,100168.33
2023-01-11T22:37:04.997Z,100166.33
2023-01-11T22:39:40.982Z,100166.33
2023-01-11T22:42:14.885Z,100163.63
2023-01-11T22:44:48.655Z,100165.73
2023-01-11T22:47:22.511Z,100166.48
2023-01-11T22:49:57.090Z,100165.69
2023-01-11T22:52:32.605Z,100166.16
2023-01-11T22:55:07.042Z,100155.80
2023-01-11T22:57:40.954Z,100153.02
2023-01-11T23:00:16.766Z,100157.35
2023-01-11T23:02:51.292Z,100159.41
2023-01-11T23:05:25.007Z,100165.41
2023-01-11T23:07:58.577Z,100167.58
2023-01-11T23:10:32.360Z,100168.02
2023-01-11T23:13:23.734Z,100168.79
2023-01-11T23:15:57.932Z,100169.05
2023-01-11T23:18:31.808Z,100166.84
2023-01-11T23:21:08.585Z,100172.28
2023-01-11T23:23:42.386Z,100173.85
2023-01-11T23:26:18.347Z,100174.67
2023-01-11T23:28:52.986Z,100172.43
2023-01-11T23:31:29.666Z,100168.45
2023-01-11T23:34:04.812Z,100169.72
2023-01-11T23:36:40.106Z,100171.22
2023-01-11T23:39:15.944Z,100172.95
2023-01-11T23:42:07.128Z,100172.55
2023-01-11T23:44:40.912Z,100175.49
2023-01-11T23:47:25.442Z,100173.07
2023-01-11T23:50:01.352Z,100169.72
2023-01-11T23:52:35.618Z,100175.86
2023-01-11T23:55:10.812Z,100170.55
2023-01-11T23:58:04.711Z,100168.83
